createdAt,value
2019-05-28T00:00:21.781Z,9.19
2019-05-28T00:01:20.769Z,9.27
2019-05-28T00:02:20.764Z,9.21
2019-05-28T00:03:20.754Z,9.19
2019-05-28T00:04:20.741Z,9.18
2019-05-28T00:05:20.722Z,9.21
2019-05-28T00:06:20.710Z,9.19
2019-05-28T00:07:20.709Z,9.18
2019-05-28T00:08:20.730Z,9.24
2019-05-28T00:09:20.726Z,9.26
2019-05-28T00:10:33.439Z,9.29
2019-05-28T00:11:20.682Z,9.30
2019-05-28T00:12:20.646Z,9.27
2019-05-28T00:13:20.773Z,9.33
2019-05-28T00:14:20.834Z,9.30
2019-05-28T00:15:20.624Z,9.34
2019-05-28T00:16:20.605Z,9.36
2019-05-28T00:17:20.601Z,9.27
2019-05-28T00:18:20.606Z,9.30
2019-05-28T00:19:20.613Z,9.39
2019-05-28T00:20:20.587Z,9.40
2019-05-28T00:21:20.664Z,9.36
2019-05-28T00:22:20.534Z,9.44
2019-05-28T00:23:20.527Z,9.45
2019-05-28T00:24:20.524Z,9.40
2019-05-28T00:25:20.543Z,9.37
2019-05-28T00:26:20.495Z,9.40
2019-05-28T00:27:20.483Z,9.42
2019-05-28T00:28:20.470Z,9.40
2019-05-28T00:29:20.461Z,9.44
2019-05-28T00:30:21.137Z,9.39
2019-05-28T00:31:20.440Z,9.42
2019-05-28T00:32:20.425Z,9.42
2019-05-28T00:33:20.420Z,9.48
2019-05-28T00:34:20.407Z,9.42
2019-05-28T00:35:20.468Z,9.45
2019-05-28T00:36:20.413Z,9.39
2019-05-28T00:37:20.381Z,9.45
2019-05-28T00:38:20.364Z,9.54
2019-05-28T00:39:20.351Z,9.47
2019-05-28T00:40:20.337Z,9.49
2019-05-28T00:41:33.349Z,9.52
2019-05-28T00:42:20.313Z,9.47
2019-05-28T00:43:20.301Z,9.55
2019-05-28T00:44:20.296Z,9.52
2019-05-28T00:45:20.279Z,9.49
2019-05-28T00:46:20.274Z,9.48
2019-05-28T00:47:20.257Z,9.49
2019-05-28T00:48:20.250Z,9.49
2019-05-28T00:49:20.240Z,9.51
2019-05-28T00:50:20.228Z,9.47
2019-05-28T00:51:20.218Z,9.52
2019-05-28T00:52:20.349Z,9.51
2019-05-28T00:53:20.235Z,9.47
2019-05-28T00:54:20.180Z,9.48
2019-05-28T00:55:20.171Z,9.47
2019-05-28T00:56:20.151Z,9.56
2019-05-28T00:57:20.150Z,9.59
2019-05-28T00:58:20.139Z,9.58
2019-05-28T00:59:20.125Z,9.49
2019-05-28T01:00:36.196Z,9.62
2019-05-28T01:02:20.104Z,9.64
2019-05-28T01:03:20.080Z,9.70
2019-05-28T01:04:20.069Z,9.63
2019-05-28T01:05:20.055Z,9.64
2019-05-28T01:06:20.048Z,9.62
2019-05-28T01:07:20.034Z,9.73
2019-05-28T01:08:20.036Z,9.72
2019-05-28T01:09:20.016Z,9.70
2019-05-28T01:10:20.003Z,9.66
2019-05-28T01:11:19.985Z,9.69
2019-05-28T01:12:33.071Z,9.72
2019-05-28T01:13:19.971Z,9.69
2019-05-28T01:14:19.951Z,9.69
2019-05-28T01:15:19.949Z,9.69
2019-05-28T01:16:19.932Z,9.81
2019-05-28T01:17:19.934Z,9.74
2019-05-28T01:18:19.954Z,9.77
2019-05-28T01:19:19.898Z,9.74
2019-05-28T01:20:19.891Z,9.77
2019-05-28T01:21:19.880Z,9.80
2019-05-28T01:22:19.865Z,9.80
2019-05-28T01:23:19.852Z,9.76
2019-05-28T01:24:19.861Z,9.77
2019-05-28T01:25:19.832Z,9.76
2019-05-28T01:26:19.825Z,9.76
2019-05-28T01:27:19.811Z,9.77
2019-05-28T01:28:19.807Z,9.80
2019-05-28T01:29:19.786Z,9.84
2019-05-28T01:30:19.781Z,9.84
2019-05-28T01:31:19.773Z,9.88
2019-05-28T01:32:19.768Z,9.81
2019-05-28T01:33:19.744Z,9.90
2019-05-28T01:34:19.738Z,9.84
2019-05-28T01:35:19.731Z,9.88
2019-05-28T01:36:19.718Z,9.87
2019-05-28T01:37:19.711Z,9.87
2019-05-28T01:38:19.686Z,9.90
2019-05-28T01:39:19.678Z,9.90
2019-05-28T01:40:23.034Z,9.90
2019-05-28T01:41:19.658Z,9.81
2019-05-28T01:42:19.650Z,9.77
2019-05-28T01:43:31.398Z,9.77
2019-05-28T01:44:19.622Z,9.74
2019-05-28T01:45:19.615Z,9.81
2019-05-28T01:46:19.668Z,9.74
2019-05-28T01:47:19.593Z,9.72
2019-05-28T01:48:19.580Z,9.74
2019-05-28T01:49:19.575Z,9.73
2019-05-28T01:50:19.560Z,9.72
2019-05-28T01:51:19.547Z,9.76
2019-05-28T01:52:19.627Z,9.88
2019-05-28T01:53:19.533Z,9.81
2019-05-28T01:54:19.514Z,9.77
2019-05-28T01:55:19.500Z,9.85
2019-05-28T01:56:19.491Z,9.84
2019-05-28T01:57:19.488Z,9.82
2019-05-28T01:58:19.571Z,9.88
2019-05-28T01:59:19.465Z,9.88
2019-05-28T02:00:19.452Z,9.80
2019-05-28T02:01:19.435Z,9.74
2019-05-28T02:02:19.432Z,9.76
2019-05-28T02:03:19.410Z,9.81
2019-05-28T02:04:19.419Z,9.76
2019-05-28T02:05:19.396Z,9.72
2019-05-28T02:06:19.380Z,9.74
2019-05-28T02:07:19.370Z,9.77
2019-05-28T02:08:19.365Z,9.76
2019-05-28T02:09:19.365Z,9.85
2019-05-28T02:10:19.336Z,9.76
2019-05-28T02:11:19.324Z,9.87
2019-05-28T02:12:19.311Z,9.72
2019-05-28T02:13:19.299Z,9.84
2019-05-28T02:14:30.916Z,9.72
2019-05-28T02:15:19.291Z,9.76
2019-05-28T02:16:19.271Z,9.91
2019-05-28T02:17:19.258Z,9.85
2019-05-28T02:18:19.239Z,9.90
2019-05-28T02:19:19.282Z,9.87
2019-05-28T02:20:19.228Z,9.88
2019-05-28T02:21:19.215Z,9.74
2019-05-28T02:22:19.200Z,9.80
2019-05-28T02:23:19.197Z,9.85
2019-05-28T02:24:19.185Z,9.80
2019-05-28T02:25:19.170Z,9.76
2019-05-28T02:26:19.260Z,9.81
2019-05-28T02:35:19.073Z,9.63
2019-05-28T02:45:30.185Z,9.59
2019-05-28T03:03:18.747Z,9.52
2019-05-28T03:06:18.705Z,9.55
2019-05-28T03:16:30.965Z,9.85
2019-05-28T03:27:18.466Z,9.88
2019-05-28T03:28:18.457Z,9.81
2019-05-28T03:29:18.452Z,9.90
2019-05-28T03:30:18.439Z,9.84
2019-05-28T03:31:18.430Z,9.88
2019-05-28T03:32:18.424Z,9.95
2019-05-28T03:33:18.449Z,9.91
2019-05-28T03:34:18.398Z,9.94
2019-05-28T03:35:18.415Z,10.00
2019-05-28T03:36:18.367Z,10.00
2019-05-28T03:37:18.351Z,10.02
2019-05-28T03:39:18.334Z,9.95
2019-05-28T03:41:18.315Z,10.05
2019-05-28T03:42:18.297Z,10.03
2019-05-28T03:43:18.285Z,10.05
2019-05-28T03:44:18.282Z,10.03
2019-05-28T03:45:18.305Z,9.97
2019-05-28T03:46:18.259Z,10.07
2019-05-28T03:47:30.511Z,10.12
2019-05-28T03:49:18.214Z,10.17
2019-05-28T03:50:18.212Z,10.12
2019-05-28T03:51:18.202Z,10.17
2019-05-28T03:52:18.205Z,10.18
2019-05-28T03:53:18.182Z,10.24
2019-05-28T03:54:18.167Z,10.24
2019-05-28T03:55:18.196Z,10.17
2019-05-28T03:56:18.147Z,10.24
2019-05-28T03:57:18.149Z,10.25
2019-05-28T03:58:18.130Z,10.25
2019-05-28T03:59:18.101Z,10.34
2019-05-28T04:00:18.104Z,10.38
2019-05-28T04:01:18.083Z,10.53
2019-05-28T04:02:23.416Z,10.51
2019-05-28T04:04:18.048Z,10.57
2019-05-28T04:05:18.036Z,10.48
2019-05-28T04:06:18.027Z,10.55
2019-05-28T04:07:18.026Z,10.67
2019-05-28T04:08:18.007Z,10.67
2019-05-28T04:10:17.992Z,10.68
2019-05-28T04:11:17.969Z,10.67
2019-05-28T04:13:17.949Z,10.76
2019-05-28T04:14:17.952Z,10.77
2019-05-28T04:15:17.939Z,10.75
2019-05-28T04:16:17.919Z,10.82
2019-05-28T04:17:17.995Z,10.95
2019-05-28T04:18:31.041Z,10.84
2019-05-28T04:20:17.873Z,10.80
2019-05-28T04:21:17.860Z,10.90
2019-05-28T04:22:17.866Z,10.94
2019-05-28T04:23:17.857Z,11.01
2019-05-28T04:24:17.846Z,11.02
2019-05-28T04:25:17.823Z,11.10
2019-05-28T04:26:17.807Z,11.04
2019-05-28T04:27:17.795Z,11.07
2019-05-28T04:28:17.799Z,11.10
2019-05-28T04:29:17.818Z,11.23
2019-05-28T04:30:17.763Z,11.27
2019-05-28T04:31:17.760Z,11.25
2019-05-28T04:32:17.739Z,11.37
2019-05-28T04:33:17.732Z,11.22
2019-05-28T04:34:17.727Z,11.38
2019-05-28T04:35:17.714Z,11.34
2019-05-28T04:36:17.705Z,11.40
2019-05-28T04:37:17.701Z,11.38
2019-05-28T04:38:17.675Z,11.35
2019-05-28T04:39:17.667Z,11.34
2019-05-28T04:41:17.650Z,11.40
2019-05-28T04:42:17.635Z,11.44
2019-05-28T04:43:17.639Z,11.49
2019-05-28T04:45:17.604Z,11.52
2019-05-28T04:46:17.612Z,11.56
2019-05-28T04:47:17.584Z,11.55
2019-05-28T04:48:17.567Z,11.51
2019-05-28T04:49:30.483Z,11.53
2019-05-28T04:51:17.566Z,11.51
2019-05-28T04:52:17.531Z,11.62
2019-05-28T04:53:17.512Z,11.56
2019-05-28T04:54:17.508Z,11.83
2019-05-28T04:55:17.492Z,11.88
2019-05-28T04:56:17.501Z,11.96
2019-05-28T04:57:17.494Z,12.02
2019-05-28T04:58:17.470Z,12.05
2019-05-28T04:59:17.458Z,12.21
2019-05-28T05:00:17.439Z,12.17
2019-05-28T05:01:17.428Z,12.26
2019-05-28T05:02:17.431Z,12.37
2019-05-28T05:03:17.414Z,12.35
2019-05-28T05:04:17.393Z,12.33
2019-05-28T05:05:17.388Z,12.45
2019-05-28T05:06:17.377Z,12.51
2019-05-28T05:07:17.358Z,12.55
2019-05-28T05:08:17.359Z,12.54
2019-05-28T05:09:17.343Z,12.53
2019-05-28T05:10:19.239Z,12.45
2019-05-28T05:12:17.304Z,12.40
2019-05-28T05:13:17.334Z,12.45
2019-05-28T05:14:17.304Z,12.50
2019-05-28T05:15:17.273Z,12.51
2019-05-28T05:17:17.643Z,12.55
2019-05-28T05:18:17.539Z,12.48
2019-05-28T05:19:17.373Z,12.53
2019-05-28T05:20:30.519Z,12.62
2019-05-28T05:22:17.228Z,12.62
2019-05-28T05:23:17.190Z,12.68
2019-05-28T05:24:17.215Z,12.61
2019-05-28T05:25:17.177Z,12.72
2019-05-28T05:26:17.231Z,12.73
2019-05-28T05:27:17.238Z,12.66
2019-05-28T05:28:17.122Z,12.68
2019-05-28T05:29:17.111Z,12.57
2019-05-28T05:30:17.113Z,12.61
2019-05-28T05:31:17.099Z,12.58
2019-05-28T05:32:17.084Z,12.44
2019-05-28T05:33:20.397Z,12.39
2019-05-28T05:34:17.057Z,12.36
2019-05-28T05:35:17.293Z,12.36
2019-05-28T05:36:17.147Z,12.39
2019-05-28T05:37:17.028Z,12.36
2019-05-28T05:38:17.018Z,12.30
2019-05-28T05:39:17.003Z,12.25
2019-05-28T05:40:17.034Z,12.33
2019-05-28T05:41:16.979Z,12.35
2019-05-28T05:43:16.965Z,12.29
2019-05-28T05:44:16.942Z,12.48
2019-05-28T05:45:16.932Z,12.40
2019-05-28T05:46:16.960Z,12.54
2019-05-28T05:47:16.914Z,12.66
2019-05-28T05:48:17.033Z,12.58
2019-05-28T05:49:16.896Z,12.66
2019-05-28T05:50:16.883Z,12.65
2019-05-28T05:51:30.639Z,12.73
2019-05-28T05:53:16.925Z,12.83
2019-05-28T05:54:16.844Z,12.93
2019-05-28T05:55:16.822Z,12.99
2019-05-28T05:56:16.816Z,12.95
2019-05-28T05:57:16.874Z,13.05
2019-05-28T05:58:16.916Z,13.08
2019-05-28T05:59:16.780Z,13.08
2019-05-28T06:00:16.855Z,13.08
2019-05-28T06:01:16.810Z,13.11
2019-05-28T06:02:16.837Z,13.13
2019-05-28T06:03:16.747Z,13.13
2019-05-28T06:04:16.732Z,13.01
2019-05-28T06:05:16.718Z,13.05
2019-05-28T06:06:16.705Z,13.11
2019-05-28T06:07:16.730Z,13.12
2019-05-28T06:08:16.718Z,13.17
2019-05-28T06:09:16.736Z,13.19
2019-05-28T06:10:16.658Z,13.21
2019-05-28T06:11:16.656Z,13.21
2019-05-28T06:12:16.637Z,13.17
2019-05-28T06:14:17.121Z,13.08
2019-05-28T06:15:16.626Z,13.13
2019-05-28T06:16:16.593Z,13.24
2019-05-28T06:17:16.599Z,13.30
2019-05-28T06:18:16.579Z,13.31
2019-05-28T06:19:16.574Z,13.27
2019-05-28T06:21:18.947Z,13.42
2019-05-28T06:22:29.525Z,13.39
2019-05-28T06:24:16.503Z,13.20
2019-05-28T06:25:16.555Z,13.26
2019-05-28T06:26:16.495Z,13.21
2019-05-28T06:27:19.344Z,13.31
2019-05-28T06:28:16.504Z,13.37
2019-05-28T06:29:16.477Z,13.43
2019-05-28T06:30:16.449Z,13.36
2019-05-28T06:31:16.423Z,13.45
2019-05-28T06:32:16.568Z,13.49
2019-05-28T06:33:16.428Z,13.54
2019-05-28T06:34:16.422Z,13.55
2019-05-28T06:35:16.375Z,13.60
2019-05-28T06:36:16.387Z,13.71
2019-05-28T06:37:16.359Z,13.89
2019-05-28T06:38:16.345Z,13.62
2019-05-28T06:39:16.355Z,13.58
2019-05-28T06:40:16.333Z,13.55
2019-05-28T06:42:16.304Z,13.23
2019-05-28T06:43:16.289Z,13.30
2019-05-28T06:45:16.270Z,13.26
2019-05-28T06:46:16.266Z,13.30
2019-05-28T06:47:16.248Z,13.33
2019-05-28T06:48:16.233Z,13.26
2019-05-28T06:49:16.228Z,13.26
2019-05-28T06:50:16.232Z,13.11
2019-05-28T06:51:16.206Z,12.95
2019-05-28T06:53:28.431Z,12.81
2019-05-28T06:55:16.214Z,12.83
2019-05-28T06:56:16.436Z,12.76
2019-05-28T06:57:22.730Z,12.87
2019-05-28T06:59:16.113Z,12.69
2019-05-28T07:00:16.185Z,12.69
2019-05-28T07:01:16.138Z,12.68
2019-05-28T07:02:16.114Z,12.66
2019-05-28T07:03:21.559Z,12.66
2019-05-28T07:05:16.063Z,12.76
2019-05-28T07:06:16.055Z,12.76
2019-05-28T07:07:16.248Z,12.93
2019-05-28T07:08:17.990Z,13.08
2019-05-28T07:10:26.803Z,13.28
2019-05-28T07:11:26.791Z,13.39
2019-05-28T07:12:26.796Z,13.46
2019-05-28T07:13:26.766Z,13.45
2019-05-28T07:15:26.740Z,13.39
2019-05-28T07:16:26.748Z,13.24
2019-05-28T07:17:26.745Z,13.36
2019-05-28T07:18:26.761Z,13.39
2019-05-28T07:19:26.697Z,13.39
2019-05-28T07:20:26.682Z,13.50
2019-05-28T07:21:26.681Z,13.33
2019-05-28T07:22:26.664Z,13.43
2019-05-28T07:24:26.668Z,13.42
2019-05-28T07:25:27.045Z,13.36
2019-05-28T07:26:26.627Z,13.37
2019-05-28T07:27:26.606Z,13.24
2019-05-28T07:28:26.634Z,13.28
2019-05-28T07:29:26.672Z,13.40
2019-05-28T07:30:26.581Z,13.28
2019-05-28T07:31:26.586Z,13.31
2019-05-28T07:32:26.597Z,13.36
2019-05-28T07:33:26.612Z,13.30
2019-05-28T07:34:30.653Z,13.37
2019-05-28T07:35:26.518Z,13.42
2019-05-28T07:36:26.504Z,13.31
2019-05-28T07:37:26.606Z,13.37
2019-05-28T07:38:26.481Z,13.47
2019-05-28T07:39:26.491Z,13.70
2019-05-28T07:40:33.552Z,13.80
2019-05-28T07:41:26.456Z,13.83
2019-05-28T07:42:32.668Z,13.93
2019-05-28T07:43:27.489Z,13.93
2019-05-28T07:44:26.497Z,13.87
2019-05-28T07:45:26.453Z,13.91
2019-05-28T07:46:26.399Z,13.93
2019-05-28T07:47:26.387Z,13.91
2019-05-28T07:48:26.436Z,13.91
2019-05-28T07:49:26.449Z,13.93
2019-05-28T07:50:26.431Z,13.89
2019-05-28T07:51:26.351Z,13.83
2019-05-28T07:52:26.332Z,13.89
2019-05-28T07:53:39.382Z,13.93
2019-05-28T07:54:27.360Z,13.89
2019-05-28T07:55:26.450Z,13.95
2019-05-28T07:56:26.281Z,13.95
2019-05-28T07:57:26.379Z,13.78
2019-05-28T07:58:26.314Z,13.80
2019-05-28T07:59:26.256Z,13.80
2019-05-28T08:00:26.252Z,13.75
2019-05-28T08:01:26.248Z,13.94
2019-05-28T08:02:26.218Z,13.79
2019-05-28T08:03:26.204Z,13.79
2019-05-28T08:04:26.205Z,13.89
2019-05-28T08:05:26.217Z,13.78
2019-05-28T08:06:26.288Z,13.91
2019-05-28T08:07:26.171Z,13.93
2019-05-28T08:08:26.154Z,13.98
2019-05-28T08:10:29.328Z,13.95
2019-05-28T08:11:40.548Z,13.89
2019-05-28T08:12:26.120Z,13.82
2019-05-28T08:13:39.585Z,13.73
2019-05-28T08:14:27.089Z,13.76
2019-05-28T08:15:26.088Z,13.83
2019-05-28T08:16:26.069Z,14.11
2019-05-28T08:17:26.062Z,14.05
2019-05-28T08:18:26.074Z,14.08
2019-05-28T08:19:26.109Z,14.18
2019-05-28T08:20:26.027Z,14.34
2019-05-28T08:21:26.034Z,14.37
2019-05-28T08:23:25.986Z,14.41
2019-05-28T08:24:25.993Z,14.55
2019-05-28T08:25:45.473Z,14.85
2019-05-28T08:26:26.952Z,14.92
2019-05-28T08:27:25.947Z,14.85
2019-05-28T08:28:25.972Z,14.63
2019-05-28T08:30:25.908Z,14.66
2019-05-28T08:31:26.268Z,14.48
2019-05-28T08:32:26.053Z,14.43
2019-05-28T08:33:25.885Z,14.30
2019-05-28T08:34:25.883Z,14.12
2019-05-28T08:35:25.898Z,13.97
2019-05-28T08:36:25.844Z,13.94
2019-05-28T08:37:25.853Z,13.87
2019-05-28T08:38:25.835Z,13.79
2019-05-28T08:39:25.836Z,13.80
2019-05-28T08:41:25.830Z,13.80
2019-05-28T08:42:38.609Z,13.86
2019-05-28T08:43:25.926Z,13.70
2019-05-28T08:44:25.831Z,13.82
2019-05-28T08:45:25.751Z,13.70
2019-05-28T08:46:25.735Z,13.73
2019-05-28T08:47:25.723Z,13.60
2019-05-28T08:48:25.741Z,13.45
2019-05-28T08:49:25.746Z,13.40
2019-05-28T08:50:34.483Z,13.31
2019-05-28T08:51:26.686Z,13.42
2019-05-28T08:52:25.665Z,13.36
2019-05-28T08:54:25.654Z,13.26
2019-05-28T08:55:25.667Z,13.30
2019-05-28T08:56:25.631Z,13.33
2019-05-28T08:57:25.618Z,13.31
2019-05-28T08:58:25.603Z,13.28
2019-05-28T09:00:26.167Z,13.33
2019-05-28T09:13:36.363Z,13.42
2019-05-28T09:15:25.412Z,13.21
2019-05-28T09:16:25.408Z,13.06
2019-05-28T09:17:25.394Z,13.06
2019-05-28T09:18:25.382Z,13.06
2019-05-28T09:19:25.372Z,13.02
2019-05-28T09:20:25.361Z,12.88
2019-05-28T09:21:25.377Z,12.83
2019-05-28T09:22:26.480Z,12.70
2019-05-28T09:23:25.418Z,12.61
2019-05-28T09:24:27.783Z,12.68
2019-05-28T09:25:25.305Z,12.66
2019-05-28T09:26:25.343Z,12.72
2019-05-28T09:27:25.652Z,12.62
2019-05-28T09:28:30.211Z,12.72
2019-05-28T09:29:26.255Z,12.62
2019-05-28T09:30:25.264Z,12.69
2019-05-28T09:31:25.241Z,12.76
2019-05-28T09:32:25.250Z,12.70
2019-05-28T09:33:25.219Z,12.76
2019-05-28T09:34:25.216Z,12.76
2019-05-28T09:35:41.189Z,12.84
2019-05-28T09:36:26.185Z,12.84
2019-05-28T09:37:25.175Z,12.93
2019-05-28T09:38:25.208Z,13.06
2019-05-28T09:39:25.177Z,13.09
2019-05-28T09:40:25.254Z,13.31
2019-05-28T09:41:25.131Z,13.28
2019-05-28T09:42:25.115Z,13.24
2019-05-28T09:43:25.106Z,13.31
2019-05-28T09:44:37.672Z,13.26
2019-05-28T09:45:25.106Z,13.28
2019-05-28T09:46:26.444Z,13.19
2019-05-28T09:47:25.319Z,13.19
2019-05-28T09:48:25.162Z,13.27
2019-05-28T09:49:25.043Z,13.27
2019-05-28T09:50:30.467Z,13.19
2019-05-28T09:51:26.138Z,13.21
2019-05-28T09:52:25.267Z,13.13
2019-05-28T09:53:36.476Z,12.95
2019-05-28T09:54:25.178Z,13.03
2019-05-28T09:55:25.264Z,13.05
2019-05-28T09:56:25.274Z,13.28
2019-05-28T09:57:25.007Z,13.20
2019-05-28T09:58:24.974Z,13.16
2019-05-28T09:59:40.360Z,13.16
2019-05-28T10:00:25.954Z,13.17
2019-05-28T10:01:24.908Z,12.99
2019-05-28T10:02:25.180Z,13.05
2019-05-28T10:03:24.905Z,13.08
2019-05-28T10:04:44.073Z,13.13
2019-05-28T10:05:26.673Z,13.19
2019-05-28T10:06:36.838Z,13.12
2019-05-28T10:07:26.000Z,13.24
2019-05-28T10:08:24.941Z,13.31
2019-05-28T10:09:24.878Z,13.24
2019-05-28T10:10:24.886Z,13.12
2019-05-28T10:11:26.420Z,13.19
2019-05-28T10:12:24.976Z,13.33
2019-05-28T10:14:24.831Z,13.37
2019-05-28T10:15:37.273Z,13.26
2019-05-28T10:16:24.745Z,13.27
2019-05-28T10:17:24.732Z,13.31
2019-05-28T10:18:24.713Z,13.30
2019-05-28T10:19:24.726Z,13.24
2019-05-28T10:20:24.709Z,13.26
2019-05-28T10:21:24.689Z,13.19
2019-05-28T10:22:24.688Z,13.16
2019-05-28T10:23:24.669Z,13.21
2019-05-28T10:24:24.676Z,13.39
2019-05-28T10:25:24.746Z,13.37
2019-05-28T10:27:24.670Z,13.50
2019-05-28T10:28:24.608Z,13.54
2019-05-28T10:29:24.598Z,13.65
2019-05-28T10:30:24.586Z,13.68
2019-05-28T10:31:24.579Z,13.70
2019-05-28T10:32:24.593Z,13.91
2019-05-28T10:33:24.558Z,14.01
2019-05-28T10:34:24.538Z,14.34
2019-05-28T10:35:24.529Z,14.58
2019-05-28T10:36:34.975Z,14.68
2019-05-28T10:37:25.519Z,14.81
2019-05-28T10:38:24.510Z,14.90
2019-05-28T10:39:24.492Z,15.07
2019-05-28T10:40:24.474Z,15.07
2019-05-28T10:41:24.468Z,15.00
2019-05-28T10:42:24.462Z,15.15
2019-05-28T10:43:24.447Z,15.17
2019-05-28T10:45:24.415Z,15.30
2019-05-28T10:46:35.654Z,15.11
2019-05-28T10:47:24.468Z,15.30
2019-05-28T10:48:24.387Z,15.37
2019-05-28T10:49:24.403Z,15.52
2019-05-28T10:50:24.361Z,15.67
2019-05-28T10:51:24.435Z,15.90
2019-05-28T10:52:24.378Z,15.99
2019-05-28T10:53:24.367Z,16.18
2019-05-28T10:54:24.330Z,16.18
2019-05-28T10:55:24.313Z,16.32
2019-05-28T10:56:24.320Z,16.40
2019-05-28T10:58:24.334Z,16.22
2019-05-28T10:59:24.262Z,16.39
2019-05-28T11:00:24.251Z,16.50
2019-05-28T11:01:24.240Z,16.58
2019-05-28T11:02:24.238Z,16.66
2019-05-28T11:03:24.222Z,16.74
2019-05-28T11:04:24.252Z,16.59
2019-05-28T11:05:24.205Z,16.62
2019-05-28T11:06:24.213Z,16.36
2019-05-28T11:07:24.178Z,16.09
2019-05-28T11:08:24.160Z,15.94
2019-05-28T11:09:24.155Z,15.99
2019-05-28T11:10:25.037Z,15.94
2019-05-28T11:11:24.135Z,16.10
2019-05-28T11:12:24.133Z,16.17
2019-05-28T11:14:24.096Z,16.28
2019-05-28T11:16:24.081Z,16.39
2019-05-28T11:17:37.166Z,16.59
2019-05-28T11:18:24.050Z,16.87
2019-05-28T11:19:24.038Z,16.95
2019-05-28T11:20:24.065Z,16.79
2019-05-28T11:21:24.016Z,16.72
2019-05-28T11:22:24.012Z,16.95
2019-05-28T11:23:24.005Z,16.86
2019-05-28T11:24:23.986Z,17.02
2019-05-28T11:25:23.973Z,16.94
2019-05-28T11:26:23.976Z,16.76
2019-05-28T11:27:24.313Z,16.91
2019-05-28T11:29:23.928Z,17.04
2019-05-28T11:30:23.916Z,17.13
2019-05-28T11:31:23.933Z,17.16
2019-05-28T11:32:23.895Z,17.14
2019-05-28T11:33:23.893Z,17.22
2019-05-28T11:34:23.893Z,17.37
2019-05-28T11:35:23.866Z,17.39
2019-05-28T11:36:23.853Z,17.57
2019-05-28T11:37:23.856Z,17.69
2019-05-28T11:38:23.832Z,17.76
2019-05-28T11:39:23.825Z,17.75
2019-05-28T11:40:23.811Z,17.75
2019-05-28T11:41:40.576Z,17.69
2019-05-28T11:42:24.793Z,17.52
2019-05-28T11:43:23.792Z,17.49
2019-05-28T11:45:23.761Z,17.57
2019-05-28T11:47:23.746Z,17.65
2019-05-28T11:48:36.285Z,17.59
2019-05-28T11:49:23.711Z,17.66
2019-05-28T11:50:23.709Z,17.69
2019-05-28T11:51:23.695Z,17.56
2019-05-28T11:52:23.678Z,17.41
2019-05-28T11:53:24.243Z,17.39
2019-05-28T11:54:23.673Z,17.37
2019-05-28T11:55:23.643Z,17.46
2019-05-28T11:56:23.637Z,17.52
2019-05-28T11:57:23.627Z,17.32
2019-05-28T11:58:23.725Z,17.17
2019-05-28T12:00:23.588Z,17.39
2019-05-28T12:01:34.558Z,17.50
2019-05-28T12:02:24.577Z,17.37
2019-05-28T12:03:23.563Z,17.30
2019-05-28T12:04:23.588Z,17.27
2019-05-28T12:05:23.536Z,17.16
2019-05-28T12:06:23.522Z,17.16
2019-05-28T12:07:26.450Z,17.05
2019-05-28T12:08:23.507Z,17.22
2019-05-28T12:09:23.490Z,17.30
2019-05-28T12:10:23.520Z,17.46
2019-05-28T12:11:23.482Z,17.69
2019-05-28T12:12:23.463Z,17.80
2019-05-28T12:13:23.452Z,18.12
2019-05-28T12:14:23.435Z,18.27
2019-05-28T12:15:23.425Z,18.53
2019-05-28T12:19:34.926Z,18.51
2019-05-28T12:44:23.125Z,17.86
2019-05-28T12:46:23.084Z,17.66
2019-05-28T12:50:35.599Z,17.94
2019-05-28T12:52:23.023Z,17.84
2019-05-28T12:53:23.028Z,17.97
2019-05-28T12:54:22.999Z,17.98
2019-05-28T12:55:22.989Z,18.03
2019-05-28T12:56:22.975Z,18.00
2019-05-28T12:57:22.968Z,18.19
2019-05-28T12:58:40.764Z,18.28
2019-05-28T12:59:23.951Z,18.23
2019-05-28T13:00:22.946Z,18.21
2019-05-28T13:01:22.937Z,18.15
2019-05-28T13:02:22.916Z,18.27
2019-05-28T13:03:22.912Z,18.30
2019-05-28T13:04:22.899Z,18.37
2019-05-28T13:05:22.897Z,18.61
2019-05-28T13:06:22.869Z,18.88
2019-05-28T13:07:22.866Z,18.86
2019-05-28T13:08:22.863Z,18.78
2019-05-28T13:09:22.888Z,18.74
2019-05-28T13:10:22.829Z,18.76
2019-05-28T13:11:22.840Z,18.61
2019-05-28T13:12:22.798Z,18.60
2019-05-28T13:13:22.791Z,18.60
2019-05-28T13:14:22.782Z,18.51
2019-05-28T13:15:22.810Z,18.21
2019-05-28T13:16:22.761Z,18.15
2019-05-28T13:17:22.752Z,17.98
2019-05-28T13:18:22.753Z,18.02
2019-05-28T13:19:30.939Z,18.24
2019-05-28T13:20:22.769Z,18.16
2019-05-28T13:21:22.769Z,18.39
2019-05-28T13:22:22.702Z,18.28
2019-05-28T13:23:22.687Z,18.43
2019-05-28T13:24:22.676Z,18.37
2019-05-28T13:43:22.492Z,18.39
2019-05-28T13:44:22.464Z,18.51
2019-05-28T13:45:22.445Z,18.53
2019-05-28T13:46:22.436Z,18.66
2019-05-28T13:47:32.989Z,18.58
2019-05-28T13:48:23.413Z,18.61
2019-05-28T13:49:22.469Z,18.26
2019-05-28T13:50:35.153Z,18.39
2019-05-28T13:51:22.373Z,18.43
2019-05-28T13:52:22.377Z,18.45
2019-05-28T13:53:22.389Z,18.42
2019-05-28T13:54:22.342Z,18.43
2019-05-28T13:55:22.339Z,18.36
2019-05-28T13:56:22.321Z,18.41
2019-05-28T13:57:22.362Z,18.31
2019-05-28T13:58:22.354Z,18.34
2019-05-28T13:59:22.290Z,18.26
2019-05-28T14:00:22.290Z,18.37
2019-05-28T14:01:25.570Z,18.33
2019-05-28T14:02:22.259Z,18.16
2019-05-28T14:03:22.269Z,18.26
2019-05-28T14:04:22.250Z,18.26
2019-05-28T14:05:22.236Z,18.13
2019-05-28T14:06:22.219Z,18.26
2019-05-28T14:07:22.209Z,18.28
2019-05-28T14:08:22.200Z,18.28
2019-05-28T14:09:22.194Z,18.26
2019-05-28T14:10:22.173Z,18.37
2019-05-28T14:11:22.159Z,18.28
2019-05-28T14:12:22.159Z,18.19
2019-05-28T14:13:22.140Z,18.19
2019-05-28T14:14:22.170Z,18.26
2019-05-28T14:15:22.117Z,18.24
2019-05-28T14:16:22.109Z,18.03
2019-05-28T14:17:22.104Z,18.06
2019-05-28T14:18:22.086Z,17.97
2019-05-28T14:19:22.078Z,17.93
2019-05-28T14:20:22.109Z,17.94
2019-05-28T14:21:34.195Z,17.98
2019-05-28T14:22:33.643Z,18.00
2019-05-28T14:23:23.032Z,18.02
2019-05-28T14:24:22.023Z,18.12
2019-05-28T14:25:22.018Z,17.94
2019-05-28T14:26:22.025Z,17.94
2019-05-28T14:27:21.983Z,17.80
2019-05-28T14:28:21.981Z,17.87
2019-05-28T14:29:21.968Z,17.73
2019-05-28T14:30:21.973Z,17.94
2019-05-28T14:31:21.941Z,17.93
2019-05-28T14:32:21.941Z,18.00
2019-05-28T14:33:21.924Z,18.09
2019-05-28T14:34:21.922Z,18.21
2019-05-28T14:35:21.940Z,18.08
2019-05-28T14:36:21.887Z,17.94
2019-05-28T14:37:21.876Z,18.02
2019-05-28T14:38:21.868Z,17.97
2019-05-28T14:39:21.860Z,18.00
2019-05-28T14:40:24.777Z,18.13
2019-05-28T14:41:21.868Z,17.95
2019-05-28T14:42:21.823Z,17.95
2019-05-28T14:43:21.809Z,18.00
2019-05-28T14:44:21.800Z,18.05
2019-05-28T14:45:21.787Z,18.26
2019-05-28T14:46:21.820Z,18.21
2019-05-28T14:47:21.771Z,18.23
2019-05-28T14:48:21.764Z,18.15
2019-05-28T14:49:21.767Z,18.13
2019-05-28T14:50:21.742Z,18.21
2019-05-28T14:51:21.845Z,17.98
2019-05-28T14:52:34.454Z,17.90
2019-05-28T14:53:21.706Z,17.93
2019-05-28T14:54:21.745Z,17.91
2019-05-28T14:55:21.686Z,17.71
2019-05-28T14:56:21.682Z,17.73
2019-05-28T14:57:21.664Z,17.65
2019-05-28T14:58:21.698Z,17.53
2019-05-28T14:59:21.647Z,17.32
2019-05-28T15:00:21.624Z,17.27
2019-05-28T15:01:21.621Z,17.27
2019-05-28T15:02:21.730Z,17.30
2019-05-28T15:03:21.600Z,17.27
2019-05-28T15:04:21.631Z,17.24
2019-05-28T15:05:21.584Z,17.34
2019-05-28T15:06:21.563Z,17.37
2019-05-28T15:07:21.552Z,17.38
2019-05-28T15:08:21.585Z,17.38
2019-05-28T15:09:21.842Z,17.34
2019-05-28T15:10:21.530Z,17.41
2019-05-28T15:11:21.507Z,17.42
2019-05-28T15:12:21.498Z,17.32
2019-05-28T15:13:21.494Z,17.28
2019-05-28T15:14:21.499Z,17.27
2019-05-28T15:15:35.092Z,17.41
2019-05-28T15:16:22.462Z,17.31
2019-05-28T15:17:21.458Z,17.46
2019-05-28T15:18:21.449Z,17.49
2019-05-28T15:19:21.433Z,17.54
2019-05-28T15:20:21.410Z,17.49
2019-05-28T15:21:21.405Z,17.47
2019-05-28T15:22:21.388Z,17.38
2019-05-28T15:23:34.513Z,17.22
2019-05-28T15:24:21.406Z,17.16
2019-05-28T15:25:21.374Z,17.10
2019-05-28T15:26:21.346Z,17.27
2019-05-28T15:27:21.330Z,17.30
2019-05-28T15:28:21.321Z,17.28
2019-05-28T15:29:21.313Z,17.24
2019-05-28T15:30:21.311Z,17.27
2019-05-28T15:31:21.285Z,17.37
2019-05-28T15:32:21.271Z,17.24
2019-05-28T15:33:21.266Z,17.24
2019-05-28T15:34:21.276Z,17.28
2019-05-28T15:35:21.244Z,17.32
2019-05-28T15:36:21.235Z,17.38
2019-05-28T15:37:21.220Z,17.35
2019-05-28T15:38:21.208Z,17.16
2019-05-28T15:39:38.313Z,17.12